createdAt,value
2022-11-08T00:01:47.211Z,68.45
2022-11-08T00:04:16.100Z,57.78
2022-11-08T00:07:07.270Z,55.90
2022-11-08T00:09:52.960Z,52.25
2022-11-08T00:12:42.009Z,57.33
2022-11-08T00:15:13.286Z,51.42
2022-11-08T00:17:47.722Z,54.75
2022-11-08T00:20:18.987Z,55.75
2022-11-08T00:22:49.081Z,57.88
2022-11-08T00:25:18.092Z,52.70
2022-11-08T00:27:46.548Z,54.63
2022-11-08T00:33:00.784Z,57.60
2022-11-08T00:35:29.791Z,57.42
2022-11-08T00:37:59.966Z,55.17
2022-11-08T00:40:30.953Z,59.53
2022-11-08T00:43:02.269Z,55.58
2022-11-08T00:45:29.825Z,56.92
2022-11-08T00:47:58.919Z,52.67
2022-11-08T00:50:26.543Z,49.70
2022-11-08T00:52:55.583Z,52.83
2022-11-08T00:55:23.617Z,50.42
2022-11-08T00:57:59.647Z,51.20
2022-11-08T01:00:28.851Z,49.70
2022-11-08T01:03:20.404Z,54.90
2022-11-08T01:06:02.932Z,53.88
2022-11-08T01:08:33.353Z,51.42
2022-11-08T01:11:08.476Z,60.75
2022-11-08T01:13:36.205Z,57.80
2022-11-08T01:16:12.231Z,49.47
2022-11-08T01:18:40.133Z,48.13
2022-11-08T01:21:10.070Z,52.75
2022-11-08T01:23:40.035Z,55.03
2022-11-08T01:26:12.114Z,56.15
2022-11-08T01:28:39.633Z,49.05
2022-11-08T01:31:26.324Z,60.55
2022-11-08T01:33:56.764Z,55.83
2022-11-08T01:36:26.546Z,46.17
2022-11-08T01:38:57.600Z,51.53
2022-11-08T01:41:28.015Z,54.15
2022-11-08T01:44:02.127Z,57.53
2022-11-08T01:46:39.458Z,60.08
2022-11-08T01:49:51.219Z,58.60
2022-11-08T01:52:56.288Z,56.67
2022-11-08T01:55:42.235Z,68.10
2022-11-08T01:58:21.103Z,60.05
2022-11-08T02:00:51.076Z,62.05
2022-11-08T02:03:23.031Z,73.80
2022-11-08T02:05:53.412Z,63.95
2022-11-08T02:08:37.160Z,59.90
2022-11-08T02:11:10.098Z,66.60
2022-11-08T02:13:41.804Z,62.60
2022-11-08T02:16:18.165Z,71.45
2022-11-08T02:18:50.514Z,61.25
2022-11-08T02:21:55.159Z,60.70
2022-11-08T02:24:23.420Z,66.60
2022-11-08T02:26:54.950Z,66.60
2022-11-08T02:29:36.962Z,68.82
2022-11-08T02:32:09.468Z,67.30
2022-11-08T02:34:58.436Z,76.22
2022-11-08T02:37:28.096Z,58.25
2022-11-08T02:39:56.713Z,63.75
2022-11-08T02:42:26.888Z,63.05
2022-11-08T02:44:57.303Z,66.15
2022-11-08T02:47:28.349Z,74.43
2022-11-08T02:49:58.170Z,67.88
2022-11-08T02:52:25.683Z,70.60
2022-11-08T02:54:53.683Z,62.88
2022-11-08T02:57:21.975Z,73.13
2022-11-08T02:59:53.140Z,79.75
2022-11-08T03:02:23.210Z,81.57
2022-11-08T03:04:52.037Z,90.57
2022-11-08T03:07:24.524Z,88.22
2022-11-08T03:09:56.082Z,71.55
2022-11-08T03:12:26.943Z,76.13
2022-11-08T03:14:57.038Z,79.68
2022-11-08T03:17:26.401Z,90.85
2022-11-08T03:19:53.957Z,78.57
2022-11-08T03:22:25.775Z,82.72
2022-11-08T03:24:54.082Z,82.65
2022-11-08T03:27:26.255Z,82.60
2022-11-08T03:29:53.710Z,88.55
2022-11-08T03:32:24.834Z,94.38
2022-11-08T03:34:52.759Z,75.78
2022-11-08T03:37:26.414Z,76.03
2022-11-08T03:39:55.688Z,59.83
2022-11-08T03:42:27.119Z,70.40
2022-11-08T03:44:57.264Z,74.68
2022-11-08T03:47:27.328Z,73.00
2022-11-08T03:49:57.323Z,69.95
2022-11-08T03:52:28.235Z,74.65
2022-11-08T03:54:57.963Z,72.78
2022-11-08T03:57:25.756Z,73.80
2022-11-08T03:59:56.346Z,79.20
2022-11-08T04:02:25.910Z,73.75
2022-11-08T04:04:53.732Z,78.95
2022-11-08T04:07:25.375Z,67.40
2022-11-08T04:09:57.944Z,66.90
2022-11-08T04:12:46.209Z,76.03
2022-11-08T04:15:17.006Z,70.00
2022-11-08T04:18:10.187Z,64.88
2022-11-08T04:21:11.534Z,70.90
2022-11-08T04:23:39.616Z,64.57
2022-11-08T04:26:11.465Z,62.20
2022-11-08T04:28:45.919Z,64.85
2022-11-08T04:31:20.686Z,61.00
2022-11-08T04:33:51.257Z,63.60
2022-11-08T04:36:20.081Z,59.28
2022-11-08T04:38:57.164Z,65.30
2022-11-08T04:41:27.558Z,67.10
2022-11-08T04:43:58.058Z,58.47
2022-11-08T04:46:31.279Z,74.70
2022-11-08T04:49:04.165Z,74.22
2022-11-08T04:51:34.560Z,73.00
2022-11-08T04:54:09.016Z,69.45
2022-11-08T04:56:39.554Z,70.90
2022-11-08T04:59:12.019Z,67.57
2022-11-08T05:01:41.596Z,68.47
2022-11-08T05:04:12.171Z,70.57
2022-11-08T05:07:02.704Z,61.70
2022-11-08T05:09:35.169Z,58.95
2022-11-08T05:12:05.985Z,55.75
2022-11-08T05:14:37.430Z,57.63
2022-11-08T05:17:07.969Z,65.57
2022-11-08T05:19:59.316Z,56.78
2022-11-08T05:22:46.871Z,55.92
2022-11-08T05:25:16.196Z,61.40
2022-11-08T05:27:46.404Z,60.22
2022-11-08T05:30:19.389Z,57.75
2022-11-08T05:33:10.132Z,57.50
2022-11-08T05:35:41.362Z,50.33
2022-11-08T05:38:12.425Z,53.90
2022-11-08T05:40:44.654Z,52.50
2022-11-08T05:43:15.393Z,49.55
2022-11-08T05:45:49.059Z,59.80
2022-11-08T05:48:18.060Z,52.70
2022-11-08T05:50:51.227Z,51.97
2022-11-08T05:53:22.446Z,52.72
2022-11-08T05:56:10.566Z,51.70
2022-11-08T05:58:41.507Z,50.63
2022-11-08T06:01:18.117Z,57.20
2022-11-08T06:03:51.784Z,54.97
2022-11-08T06:06:28.403Z,49.75
2022-11-08T06:08:58.456Z,52.53
2022-11-08T06:11:29.899Z,54.75
2022-11-08T06:14:00.507Z,55.72
2022-11-08T06:16:31.669Z,50.45
2022-11-08T06:18:59.102Z,55.17
2022-11-08T06:21:29.050Z,50.42
2022-11-08T06:23:58.263Z,56.95
2022-11-08T06:26:30.478Z,67.97
2022-11-08T06:28:59.730Z,61.15
2022-11-08T06:31:27.902Z,59.88
2022-11-08T06:33:55.930Z,55.90
2022-11-08T06:36:24.491Z,63.53
2022-11-08T06:38:55.845Z,60.15
2022-11-08T06:41:23.781Z,63.60
2022-11-08T06:43:52.443Z,68.70
2022-11-08T06:46:20.185Z,62.65
2022-11-08T06:48:49.324Z,60.58
2022-11-08T06:51:20.720Z,62.20
2022-11-08T06:53:54.961Z,60.92
2022-11-08T06:56:23.025Z,66.22
2022-11-08T06:58:54.211Z,70.63
2022-11-08T07:01:25.664Z,66.68
2022-11-08T07:03:55.452Z,75.57
2022-11-08T07:06:23.023Z,73.05
2022-11-08T07:08:54.620Z,66.28
2022-11-08T07:11:26.402Z,71.25
2022-11-08T07:13:54.189Z,67.32
2022-11-08T07:16:25.779Z,62.65
2022-11-08T07:19:00.383Z,59.15
2022-11-08T07:21:30.525Z,62.72
2022-11-08T07:24:01.598Z,69.03
2022-11-08T07:26:31.067Z,72.55
2022-11-08T07:28:59.090Z,84.40
2022-11-08T07:31:30.153Z,71.97
2022-11-08T07:33:58.067Z,70.18
2022-11-08T07:36:31.476Z,68.13
2022-11-08T07:39:06.317Z,67.28
2022-11-08T07:41:38.972Z,65.95
2022-11-08T07:44:07.843Z,68.72
2022-11-08T07:46:40.607Z,62.20
2022-11-08T07:49:09.116Z,65.18
2022-11-08T07:51:50.074Z,61.97
2022-11-08T07:54:19.737Z,64.47
2022-11-08T07:56:50.996Z,73.15
2022-11-08T07:59:21.632Z,61.00
2022-11-08T08:01:51.532Z,66.75
2022-11-08T08:04:20.566Z,65.13
2022-11-08T08:06:52.630Z,67.75
2022-11-08T08:09:23.916Z,61.15
2022-11-08T08:11:57.089Z,60.30
2022-11-08T08:14:25.115Z,58.17
2022-11-08T08:16:53.709Z,55.97
2022-11-08T08:19:23.371Z,56.97
2022-11-08T08:21:52.400Z,57.95
2022-11-08T08:24:22.085Z,55.15
2022-11-08T08:26:51.861Z,54.85
2022-11-08T08:29:19.285Z,54.17
2022-11-08T08:34:30.168Z,55.60
2022-11-08T08:36:58.278Z,56.47
2022-11-08T08:39:31.477Z,50.42
2022-11-08T08:42:01.679Z,50.50
2022-11-08T08:44:32.434Z,55.05
2022-11-08T08:47:03.597Z,51.33
2022-11-08T08:49:34.428Z,49.85
2022-11-08T08:52:06.543Z,50.50
2022-11-08T08:54:34.082Z,53.42
2022-11-08T08:57:04.680Z,52.83
2022-11-08T09:02:26.957Z,53.38
2022-11-08T09:04:54.263Z,54.97
2022-11-08T09:07:23.536Z,56.90
2022-11-08T09:09:57.582Z,47.58
2022-11-08T09:12:25.944Z,52.08
2022-11-08T09:14:59.802Z,53.60
2022-11-08T09:20:13.255Z,51.13
2022-11-08T09:23:07.749Z,55.05
2022-11-08T09:25:37.825Z,50.85
2022-11-08T09:28:07.005Z,48.30
2022-11-08T09:30:35.154Z,49.15
2022-11-08T09:33:04.126Z,53.10
2022-11-08T09:35:37.169Z,53.80
2022-11-08T09:38:08.805Z,54.60
2022-11-08T09:41:09.048Z,52.53
2022-11-08T09:44:07.891Z,50.28
2022-11-08T09:46:59.566Z,49.10
2022-11-08T09:49:59.617Z,50.10
2022-11-08T09:52:31.363Z,44.20
2022-11-08T09:55:35.149Z,54.13
2022-11-08T09:58:12.456Z,53.17
2022-11-08T10:00:41.480Z,40.22
2022-11-08T10:03:17.367Z,50.60
2022-11-08T10:06:33.363Z,47.13
2022-11-08T10:09:38.569Z,44.63
2022-11-08T10:12:43.750Z,46.80
2022-11-08T10:15:55.908Z,48.83
2022-11-08T10:18:57.881Z,49.60
2022-11-08T10:22:00.775Z,46.90
2022-11-08T10:25:10.908Z,47.80
2022-11-08T10:27:46.487Z,44.72
2022-11-08T10:30:27.717Z,42.88
2022-11-08T10:33:01.023Z,42.88
2022-11-08T10:35:46.977Z,44.78
2022-11-08T10:38:34.327Z,43.38
2022-11-08T10:41:25.241Z,39.95
2022-11-08T10:44:24.274Z,54.80
2022-11-08T10:47:07.153Z,46.55
2022-11-08T10:49:42.933Z,50.65
2022-11-08T10:52:30.526Z,47.13
2022-11-08T10:55:02.365Z,42.33
2022-11-08T10:57:47.635Z,53.08
2022-11-08T11:00:37.674Z,44.13
2022-11-08T11:03:14.275Z,39.65
2022-11-08T11:06:01.464Z,40.90
2022-11-08T11:08:32.228Z,41.03
2022-11-08T11:11:31.402Z,54.10
2022-11-08T11:14:35.831Z,58.72
2022-11-08T11:17:16.496Z,71.22
2022-11-08T11:20:03.145Z,61.40
2022-11-08T11:22:35.154Z,50.42
2022-11-08T11:25:24.789Z,40.15
2022-11-08T11:28:00.579Z,43.35
2022-11-08T11:30:36.207Z,44.30
2022-11-08T11:33:26.886Z,42.17
2022-11-08T11:36:15.784Z,46.10
2022-11-08T11:39:25.809Z,45.47
2022-11-08T11:42:39.006Z,40.88
2022-11-08T11:45:35.933Z,41.65
2022-11-08T11:48:23.411Z,43.53
2022-11-08T11:50:56.344Z,38.88
2022-11-08T11:53:48.921Z,37.65
2022-11-08T11:56:52.450Z,34.85
2022-11-08T11:59:58.278Z,35.67
2022-11-08T12:02:56.683Z,32.10
2022-11-08T12:06:08.939Z,30.80
2022-11-08T12:09:11.295Z,31.42
2022-11-08T12:11:54.191Z,33.15
2022-11-08T12:14:39.441Z,35.60
2022-11-08T12:17:49.516Z,35.90
2022-11-08T12:20:30.566Z,37.28
2022-11-08T12:23:35.498Z,35.10
2022-11-08T12:26:43.148Z,36.35
2022-11-08T12:29:45.647Z,32.38
2022-11-08T12:32:44.717Z,35.40
2022-11-08T12:35:42.382Z,34.95
2022-11-08T12:38:56.427Z,32.50
2022-11-08T12:42:17.445Z,32.50
2022-11-08T12:45:18.653Z,33.58
2022-11-08T12:48:16.357Z,34.20
2022-11-08T12:51:12.846Z,33.38
2022-11-08T12:54:03.683Z,36.72
2022-11-08T12:57:01.476Z,35.15
2022-11-08T12:59:43.223Z,36.70
2022-11-08T13:02:23.338Z,37.47
2022-11-08T13:05:27.283Z,36.85
2022-11-08T13:08:27.956Z,35.58
2022-11-08T13:11:17.035Z,37.35
2022-11-08T13:13:56.071Z,31.77
2022-11-08T13:16:27.186Z,30.60
2022-11-08T13:19:09.038Z,26.73
2022-11-08T13:21:45.380Z,26.23
2022-11-08T13:24:43.370Z,24.73
2022-11-08T13:27:58.981Z,22.58
2022-11-08T13:30:50.208Z,17.10
2022-11-08T13:33:40.237Z,21.70
2022-11-08T13:36:29.666Z,20.35
2022-11-08T13:39:44.240Z,17.00
2022-11-08T13:42:24.292Z,19.77
2022-11-08T13:45:22.688Z,22.58
2022-11-08T13:47:55.820Z,17.63
2022-11-08T13:50:51.411Z,17.77
2022-11-08T13:53:29.203Z,21.23
2022-11-08T13:56:09.952Z,18.88
2022-11-08T13:58:49.278Z,24.88
2022-11-08T14:01:24.610Z,21.55
2022-11-08T14:07:05.309Z,20.73
2022-11-08T14:09:56.547Z,23.13
2022-11-08T14:13:04.651Z,21.80
2022-11-08T14:15:49.730Z,20.45
2022-11-08T14:18:35.324Z,19.27
2022-11-08T14:21:05.729Z,20.58
2022-11-08T14:23:47.379Z,23.42
2022-11-08T14:26:33.159Z,24.25
2022-11-08T14:29:03.359Z,23.55
2022-11-08T14:31:37.011Z,21.58
2022-11-08T14:34:05.855Z,29.10
2022-11-08T14:36:39.205Z,21.88
2022-11-08T14:39:27.797Z,26.63
2022-11-08T14:42:02.082Z,22.83
2022-11-08T14:44:31.001Z,25.15
2022-11-08T14:47:00.740Z,25.00
2022-11-08T14:49:42.591Z,24.38
2022-11-08T14:52:30.846Z,24.70
2022-11-08T14:55:25.926Z,26.15
2022-11-08T14:57:57.244Z,23.10
2022-11-08T15:00:27.335Z,23.45
2022-11-08T15:03:06.981Z,25.15
2022-11-08T15:05:53.998Z,26.83
2022-11-08T15:08:36.355Z,24.60
2022-11-08T15:11:12.206Z,30.42
2022-11-08T15:13:53.131Z,27.60
2022-11-08T15:16:20.764Z,26.10
2022-11-08T15:18:53.139Z,24.52
2022-11-08T15:21:33.497Z,27.67
2022-11-08T15:24:46.429Z,31.55
2022-11-08T15:27:19.454Z,26.83
2022-11-08T15:30:16.948Z,28.90
2022-11-08T15:32:48.391Z,30.95
2022-11-08T15:35:39.150Z,28.33
2022-11-08T15:38:22.275Z,31.58
2022-11-08T15:40:54.892Z,29.65
2022-11-08T15:43:46.044Z,32.17
2022-11-08T15:46:39.723Z,32.20
2022-11-08T15:49:19.398Z,30.90
2022-11-08T15:52:06.355Z,32.28
2022-11-08T15:54:37.988Z,33.38
2022-11-08T15:57:09.030Z,30.65
2022-11-08T15:59:40.489Z,33.20
2022-11-08T16:02:26.407Z,34.88
2022-11-08T16:04:57.102Z,40.72
2022-11-08T16:07:24.752Z,44.15
2022-11-08T16:09:59.314Z,40.17
2022-11-08T16:12:30.484Z,39.83
2022-11-08T16:15:01.068Z,41.33
2022-11-08T16:17:35.064Z,43.72
2022-11-08T16:20:16.252Z,44.78
2022-11-08T16:22:46.171Z,45.10
2022-11-08T16:25:17.144Z,44.22
2022-11-08T16:27:57.435Z,48.15
2022-11-08T16:30:29.934Z,45.88
2022-11-08T16:33:01.226Z,55.85
2022-11-08T16:35:33.527Z,51.65
2022-11-08T16:38:03.047Z,45.95
2022-11-08T16:40:35.205Z,53.85
2022-11-08T16:43:06.674Z,53.47
2022-11-08T16:46:03.924Z,53.25
2022-11-08T16:48:27.701Z,52.67
2022-11-08T16:51:03.274Z,52.80
2022-11-08T16:53:34.700Z,51.33
2022-11-08T16:56:05.682Z,51.22
2022-11-08T16:58:38.984Z,54.17
2022-11-08T17:01:15.291Z,50.10
2022-11-08T17:03:44.817Z,51.83
2022-11-08T17:06:18.642Z,50.97
2022-11-08T17:08:51.556Z,45.13
2022-11-08T17:11:24.601Z,46.10
2022-11-08T17:16:21.915Z,46.33
2022-11-08T17:18:53.238Z,50.17
2022-11-08T17:24:21.928Z,45.70
2022-11-08T17:26:53.723Z,48.55
2022-11-08T17:29:26.023Z,54.05
2022-11-08T17:31:57.396Z,81.35
2022-11-08T17:34:27.449Z,76.78
2022-11-08T17:36:56.080Z,89.47
2022-11-08T17:39:27.114Z,108.20
2022-11-08T17:41:55.043Z,107.50
2022-11-08T17:44:25.216Z,84.45
2022-11-08T17:46:57.740Z,74.25
2022-11-08T17:49:29.387Z,82.20
2022-11-08T17:51:59.010Z,100.50
2022-11-08T17:54:26.816Z,71.43
2022-11-08T17:56:55.772Z,61.45
2022-11-08T17:59:24.100Z,55.35
2022-11-08T18:01:54.290Z,54.10
2022-11-08T18:04:23.012Z,60.83
2022-11-08T18:06:54.048Z,61.25
2022-11-08T18:09:23.844Z,67.43
2022-11-08T18:11:52.761Z,57.95
2022-11-08T18:14:28.275Z,56.65
2022-11-08T18:17:03.014Z,58.30
2022-11-08T18:19:32.636Z,50.40
2022-11-08T18:22:07.622Z,53.67
2022-11-08T18:24:39.334Z,50.38
2022-11-08T18:27:09.329Z,47.38
2022-11-08T18:29:38.894Z,52.33
2022-11-08T18:32:14.453Z,55.22
2022-11-08T18:34:44.347Z,57.78
2022-11-08T18:37:15.593Z,53.05
2022-11-08T18:39:47.296Z,51.28
2022-11-08T18:42:17.015Z,55.97
2022-11-08T18:44:47.290Z,53.20
2022-11-08T18:47:18.698Z,51.80
2022-11-08T18:49:50.046Z,53.40
2022-11-08T18:52:20.643Z,63.10
2022-11-08T18:54:51.206Z,61.30
2022-11-08T18:57:23.274Z,56.70
2022-11-08T19:00:00.839Z,54.42
2022-11-08T19:02:31.750Z,51.05
2022-11-08T19:05:01.155Z,53.08
2022-11-08T19:07:34.184Z,57.85
2022-11-08T19:10:01.750Z,54.85
2022-11-08T19:12:30.138Z,53.58
2022-11-08T19:14:57.746Z,60.45
2022-11-08T19:17:30.164Z,53.28
2022-11-08T19:19:57.738Z,58.38
2022-11-08T19:22:32.343Z,54.22
2022-11-08T19:25:03.300Z,59.45
2022-11-08T19:27:39.191Z,53.70
2022-11-08T19:30:10.629Z,54.63
2022-11-08T19:32:38.978Z,51.72
2022-11-08T19:35:11.698Z,52.53
2022-11-08T19:37:41.244Z,56.55
2022-11-08T19:40:13.923Z,50.33
2022-11-08T19:42:48.479Z,60.00
2022-11-08T19:45:20.635Z,60.00
2022-11-08T19:47:51.633Z,59.70
2022-11-08T19:50:22.515Z,57.30
2022-11-08T19:52:54.742Z,55.88
2022-11-08T19:55:22.825Z,54.78
2022-11-08T19:57:53.925Z,54.65
2022-11-08T20:00:25.749Z,55.00
2022-11-08T20:02:59.693Z,49.33
2022-11-08T20:05:32.567Z,48.92
2022-11-08T20:08:06.767Z,33.60
2022-11-08T20:10:34.268Z,50.70
2022-11-08T20:13:04.727Z,45.13
2022-11-08T20:15:34.436Z,44.55
2022-11-08T20:18:08.747Z,49.38
2022-11-08T20:20:41.426Z,51.00
2022-11-08T20:23:19.866Z,46.03
2022-11-08T20:25:49.310Z,43.90
2022-11-08T20:28:20.636Z,43.53
2022-11-08T20:30:49.487Z,45.13
2022-11-08T20:33:21.082Z,45.08
2022-11-08T20:35:52.321Z,44.38
2022-11-08T20:38:24.410Z,43.95
2022-11-08T20:40:55.720Z,43.53
2022-11-08T20:43:37.645Z,42.35
2022-11-08T20:46:11.468Z,54.50
2022-11-08T20:48:43.635Z,53.58
2022-11-08T20:51:26.946Z,51.75
2022-11-08T20:53:58.507Z,47.33
2022-11-08T20:56:33.776Z,47.72
2022-11-08T20:59:03.406Z,58.60
2022-11-08T21:01:37.596Z,49.88
2022-11-08T21:07:59.591Z,58.35
2022-11-08T21:09:50.484Z,56.53
2022-11-08T21:12:22.163Z,54.22
2022-11-08T21:14:55.498Z,47.28
2022-11-08T21:17:25.611Z,53.28
2022-11-08T21:19:57.427Z,52.08
2022-11-08T21:22:29.027Z,55.50
2022-11-08T21:24:58.804Z,56.28
2022-11-08T21:27:30.111Z,54.15
2022-11-08T21:30:04.631Z,47.75
2022-11-08T21:32:32.391Z,42.95
2022-11-08T21:35:02.158Z,42.03
2022-11-08T21:37:33.977Z,48.90
2022-11-08T21:40:04.498Z,51.80
2022-11-08T21:42:38.022Z,52.45
2022-11-08T21:45:08.081Z,62.45
2022-11-08T21:47:36.018Z,48.97
2022-11-08T21:50:09.244Z,55.00
2022-11-08T21:52:37.949Z,62.60
2022-11-08T21:55:09.463Z,60.33
2022-11-08T21:57:39.122Z,60.78
2022-11-08T22:00:11.360Z,54.00
2022-11-08T22:02:44.250Z,54.35
2022-11-08T22:05:14.407Z,59.08
2022-11-08T22:07:45.194Z,55.35
2022-11-08T22:10:15.844Z,57.42
2022-11-08T22:12:46.663Z,52.30
2022-11-08T22:15:15.690Z,51.55
2022-11-08T22:18:14.464Z,55.42
2022-11-08T22:20:36.413Z,53.47
2022-11-08T22:23:10.811Z,56.90
2022-11-08T22:25:40.515Z,39.67
2022-11-08T22:28:10.011Z,55.35
2022-11-08T22:30:39.284Z,56.10
2022-11-08T22:33:08.121Z,67.20
2022-11-08T22:35:37.016Z,80.28
2022-11-08T22:38:15.652Z,68.75
2022-11-08T22:40:50.924Z,60.95
2022-11-08T22:43:22.716Z,60.20
2022-11-08T22:45:50.744Z,57.60
2022-11-08T22:48:25.475Z,61.35
2022-11-08T22:50:59.652Z,60.05
2022-11-08T22:53:29.380Z,96.35
2022-11-08T22:56:01.328Z,86.97
2022-11-08T22:58:32.957Z,95.35
2022-11-08T23:01:02.808Z,73.90
2022-11-08T23:03:33.774Z,74.13
2022-11-08T23:06:06.338Z,60.60
2022-11-08T23:08:42.586Z,58.85
2022-11-08T23:11:33.467Z,58.78
2022-11-08T23:14:23.631Z,79.88
2022-11-08T23:16:55.500Z,71.82
2022-11-08T23:19:44.423Z,62.72
2022-11-08T23:22:37.841Z,53.03
2022-11-08T23:25:08.702Z,53.85
2022-11-08T23:28:02.341Z,53.58
2022-11-08T23:30:51.500Z,60.53
2022-11-08T23:33:22.739Z,56.78
2022-11-08T23:36:16.887Z,54.50
2022-11-08T23:38:46.768Z,57.88
2022-11-08T23:41:36.823Z,57.58
2022-11-08T23:44:31.527Z,59.30
2022-11-08T23:47:03.633Z,53.83
2022-11-08T23:49:35.909Z,57.30
2022-11-08T23:52:04.606Z,57.03
2022-11-08T23:54:33.113Z,52.20
2022-11-08T23:57:03.367Z,58.20
2022-11-08T23:59:35.507Z,54.08
